Time;durP1;ratioP1;P1;durP2;ratioP2;P2;SDS_P1;SDS_P2;PMS_P1;PMS_P2;Temp;Humidity;BMP_temperature;BMP_pressure;BME280_temperature;BME280_humidity;BME280_pressure;Samples;Min_cycle;Max_cycle;Signal;HPM_P1;HPM_P2
2022/06/17 00:00:53;;;;;;;;;4.00;4.00;;;;;15.99;100.00;99626.91;6281763;20;2752385;-59
2022/06/17 00:03:25;;;;;;;;;4.00;4.00;;;;;16.25;100.00;99635.50;6284238;20;2756588;-59
2022/06/17 00:05:56;;;;;;;;;7.00;4.00;;;;;15.93;100.00;99631.00;6286517;20;2754508;-59
2022/06/17 00:08:43;;;;;;;;;4.00;4.00;;;;;16.29;100.00;99634.25;6286781;20;2754615;-59
2022/06/17 00:11:31;;;;;;;;;4.00;4.00;;;;;16.25;100.00;99640.94;6288337;20;2747688;-60
2022/06/17 00:13:59;;;;;;;;;6.00;6.00;;;;;16.20;100.00;99651.28;6290284;20;2748250;-59
2022/06/17 00:16:33;;;;;;;;;5.00;5.00;;;;;16.34;100.00;99642.81;6285179;20;2741926;-59
2022/06/17 00:19:01;;;;;;;;;5.00;3.00;;;;;16.40;100.00;99642.31;6287823;20;2744045;-59
2022/06/17 00:21:35;;;;;;;;;3.50;3.50;;;;;16.11;100.00;99643.94;6288124;20;2741942;-59
2022/06/17 00:24:23;;;;;;;;;3.50;3.50;;;;;16.15;100.00;99645.41;6287821;20;2729465;-59
2022/06/17 00:26:54;;;;;;;;;5.50;5.50;;;;;16.07;100.00;99639.78;6287649;20;2745083;-59
2022/06/17 00:29:27;;;;;;;;;6.00;4.50;;;;;16.08;100.00;99636.94;6287833;20;2745220;-59
2022/06/17 00:32:00;;;;;;;;;6.00;4.00;;;;;16.11;100.00;99642.09;6281450;20;2756517;-59
2022/06/17 00:34:28;;;;;;;;;6.00;4.50;;;;;16.24;100.00;99636.47;6288695;20;2747126;-59
2022/06/17 00:37:02;;;;;;;;;4.00;4.00;;;;;16.37;100.00;99636.28;6285533;20;2749236;-59
2022/06/17 00:39:34;;;;;;;;;5.00;3.80;;;;;16.10;100.00;99644.94;6307034;20;2752373;-59
2022/06/17 00:42:11;;;;;;;;;4.00;4.00;;;;;16.23;100.00;99640.19;6317821;20;2750374;-59
2022/06/17 00:45:12;;;;;;;;;3.50;3.50;;;;;16.19;100.00;99650.44;6284022;20;2744392;-58
2022/06/17 00:48:02;;;;;;;;;4.50;3.00;;;;;16.35;100.00;99658.13;6283661;20;2749228;-59
2022/06/17 00:51:07;;;;;;;;;3.50;3.50;;;;;16.01;100.00;99647.44;6286679;20;2752170;-59
2022/06/17 00:53:46;;;;;;;;;3.00;3.00;;;;;16.05;100.00;99660.72;6281558;20;2752528;-60
2022/06/17 00:56:31;;;;;;;;;4.50;3.50;;;;;15.89;100.00;99667.44;6283293;20;2756607;-60
2022/06/17 00:59:13;;;;;;;;;4.00;4.00;;;;;16.01;100.00;99660.13;6287859;20;2749233;-59
2022/06/17 01:02:03;;;;;;;;;3.00;3.00;;;;;15.88;100.00;99660.31;6284948;20;2752389;-60
2022/06/17 01:04:44;;;;;;;;;4.00;4.00;;;;;15.96;100.00;99671.34;6285865;20;2746138;-59
2022/06/17 01:07:27;;;;;;;;;4.40;4.40;;;;;16.17;100.00;99674.09;6322280;20;2746150;-59
2022/06/17 01:10:09;;;;;;;;;6.29;4.43;;;;;16.12;100.00;99670.06;6356930;20;3457542;-59
2022/06/17 01:12:56;;;;;;;;;5.00;5.00;;;;;16.07;100.00;99666.88;6354168;20;3446079;-60
2022/06/17 01:15:27;;;;;;;;;6.00;5.00;;;;;16.07;100.00;99667.72;6312518;20;2747127;-60
2022/06/17 01:17:56;;;;;;;;;7.00;7.00;;;;;16.16;100.00;99676.91;6285284;20;2738777;-60
2022/06/17 01:20:27;;;;;;;;;5.50;5.50;;;;;16.04;100.00;99677.97;6282335;20;2744042;-60
2022/06/17 01:23:01;;;;;;;;;9.00;6.00;;;;;16.01;100.00;99671.81;6287737;20;2729470;-60
2022/06/17 01:25:53;;;;;;;;;6.00;6.00;;;;;16.10;100.00;99663.91;6279911;20;2730501;-60
2022/06/17 01:28:20;;;;;;;;;8.00;6.50;;;;;16.13;100.00;99661.78;6282734;20;2746132;-59
2022/06/17 01:30:54;;;;;;;;;7.50;7.50;;;;;16.19;100.00;99661.28;6283099;20;2732636;-59
2022/06/17 01:33:32;;;;;;;;;6.29;5.71;;;;;16.21;100.00;99659.28;6324861;20;3461688;-60
2022/06/17 01:36:27;;;;;;;;;6.00;6.00;;;;;16.32;100.00;99658.34;6355332;20;3451303;-60
2022/06/17 01:39:00;;;;;;;;;8.71;7.71;;;;;16.30;100.00;99657.66;6356901;20;3433735;-59
2022/06/17 01:41:32;;;;;;;;;8.00;8.00;;;;;16.34;100.00;99659.09;6314885;20;2734652;-60
2022/06/17 01:44:38;;;;;;;;;10.50;8.00;;;;;16.36;100.00;99659.81;6282574;20;2754494;-60
2022/06/17 01:47:18;;;;;;;;;8.50;7.00;;;;;16.28;100.00;99664.19;6279279;20;2733704;-59
2022/06/17 01:50:04;;;;;;;;;9.50;9.50;;;;;16.21;100.00;99653.00;6280460;20;2770041;-60
2022/06/17 01:52:44;;;;;;;;;10.00;9.00;;;;;16.25;100.00;99676.16;6277461;20;2771118;-60
2022/06/17 01:55:20;;;;;;;;;9.00;9.00;;;;;16.26;100.00;99672.44;6284330;20;2738826;-59
2022/06/17 01:58:14;;;;;;;;;6.80;5.20;;;;;16.33;100.00;99678.19;6304050;20;2730482;-59
2022/06/17 02:00:42;;;;;;;;;5.50;5.50;;;;;16.20;100.00;99676.53;6311009;20;2735760;-59
2022/06/17 02:03:28;;;;;;;;;10.50;7.50;;;;;16.06;100.00;99675.97;6278466;20;2775338;-60
2022/06/17 02:06:11;;;;;;;;;9.00;9.00;;;;;16.22;100.00;99676.41;6281165;20;2741911;-59
2022/06/17 02:08:39;;;;;;;;;9.00;9.00;;;;;16.21;100.00;99675.53;6285088;20;2757589;-60
2022/06/17 02:11:09;;;;;;;;;6.40;6.40;;;;;16.17;100.00;99679.50;6305400;20;2732560;-59
2022/06/17 02:13:42;;;;;;;;;7.86;6.86;;;;;16.29;100.00;99683.00;6354847;20;3457548;-60
2022/06/17 02:16:14;;;;;;;;;9.86;7.00;;;;;16.03;100.00;99687.94;6352493;20;3475460;-59
2022/06/17 02:18:46;;;;;;;;;7.14;7.14;;;;;16.18;100.00;99688.50;6351735;20;3443985;-60
2022/06/17 02:21:27;;;;;;;;;6.60;6.60;;;;;15.94;100.00;99692.28;6335235;20;2734659;-60
2022/06/17 02:23:56;;;;;;;;;8.50;8.00;;;;;16.01;100.00;99696.19;6312463;20;2738794;-60
2022/06/17 02:26:26;;;;;;;;;10.20;9.20;;;;;16.00;100.00;99699.88;6307214;20;2763011;-60
2022/06/17 02:28:54;;;;;;;;;8.00;8.00;;;;;15.69;100.00;99700.72;6280681;20;2751323;-59
2022/06/17 02:31:22;;;;;;;;;7.00;7.00;;;;;15.65;100.00;99710.06;6283542;20;2738833;-59
2022/06/17 02:33:52;;;;;;;;;8.50;8.50;;;;;15.83;100.00;99705.00;6286216;20;2735680;-59
2022/06/17 02:36:49;;;;;;;;;7.00;7.00;;;;;15.74;100.00;99699.34;6278232;20;2746098;-59
2022/06/17 02:39:20;;;;;;;;;9.80;9.00;;;;;15.78;100.00;99703.53;6310887;20;2763796;-60
2022/06/17 02:41:51;;;;;;;;;9.50;9.00;;;;;15.81;100.00;99705.13;6284650;20;2764862;-59
2022/06/17 02:44:40;;;;;;;;;12.00;11.00;;;;;15.83;100.00;99708.56;6285115;20;2794052;-59
2022/06/17 02:47:10;;;;;;;;;10.00;10.00;;;;;15.88;100.00;99711.75;6314256;20;2780452;-59
2022/06/17 02:49:40;;;;;;;;;11.67;11.33;;;;;15.78;100.00;99705.38;6282334;20;2786770;-59
2022/06/17 02:52:18;;;;;;;;;11.00;10.00;;;;;15.72;100.00;99706.75;6322141;20;2784628;-59
2022/06/17 02:54:58;;;;;;;;;13.00;13.00;;;;;15.49;100.00;99714.00;6291237;20;2789823;-59
2022/06/17 02:57:30;;;;;;;;;13.00;11.33;;;;;15.50;100.00;99723.84;6283421;20;3530500;-59
2022/06/17 03:00:20;;;;;;;;;15.50;12.50;;;;;15.67;100.00;99727.03;6314444;20;2793005;-59
2022/06/17 03:03:01;;;;;;;;;12.33;12.33;;;;;15.83;100.00;99723.97;6282986;20;3520191;-59
2022/06/17 03:05:38;;;;;;;;;14.00;13.00;;;;;15.95;100.00;99734.59;6312337;20;3507515;-59
2022/06/17 03:08:28;;;;;;;;;15.00;12.00;;;;;15.70;100.00;99724.97;6318032;20;2798168;-59
2022/06/17 03:11:00;;;;;;;;;11.00;11.00;;;;;15.82;100.00;99724.94;6282204;20;2814917;-59
2022/06/17 03:14:04;;;;;;;;;13.67;10.67;;;;;15.66;100.00;99733.41;6283605;20;3510676;-59
2022/06/17 03:16:33;;;;;;;;;9.00;8.00;;;;;15.70;100.00;99738.50;6314869;20;2748293;-59
2022/06/17 03:19:03;;;;;;;;;10.60;10.60;;;;;15.81;100.00;99732.19;6308225;20;2782599;-59
2022/06/17 03:21:32;;;;;;;;;16.33;11.67;;;;;16.11;100.00;99738.75;6281809;20;2789888;-59
2022/06/17 03:24:19;;;;;;;;;11.50;11.50;;;;;16.20;100.00;99746.13;6317438;20;2796108;-59
2022/06/17 03:27:07;;;;;;;;;14.00;13.00;;;;;15.72;100.00;99741.09;6287594;20;2784633;-59
2022/06/17 03:29:38;;;;;;;;;14.00;13.00;;;;;15.98;100.00;99741.63;6293949;20;1964950;-59
2022/06/17 03:32:18;;;;;;;;;15.33;13.00;;;;;16.06;100.00;99751.81;6279429;20;2788007;-59
2022/06/17 03:34:55;;;;;;;;;11.50;11.00;;;;;16.08;100.00;99747.13;6319411;20;2791921;-59
2022/06/17 03:37:50;;;;;;;;;10.00;10.00;;;;;15.98;100.00;99745.22;6283980;20;2792000;-59
2022/06/17 03:40:41;;;;;;;;;8.80;8.80;;;;;16.14;100.00;99744.78;6306697;20;2734631;-59
2022/06/17 03:43:49;;;;;;;;;10.33;10.33;;;;;15.99;100.00;99746.91;6312773;20;2779537;-59
2022/06/17 03:46:22;;;;;;;;;10.67;10.67;;;;;16.11;100.00;99744.16;6311897;20;2788843;-59
2022/06/17 03:49:09;;;;;;;;;10.00;10.00;;;;;16.08;100.00;99739.00;6341669;20;2794079;-58
2022/06/17 03:51:40;;;;;;;;;10.00;10.00;;;;;16.22;100.00;99736.88;6282606;20;2783627;-57
2022/06/17 03:54:14;;;;;;;;;11.00;9.00;;;;;16.16;100.00;99734.66;6286173;20;2774314;-59
2022/06/17 03:56:50;;;;;;;;;12.00;10.50;;;;;16.25;100.00;99730.34;6287480;20;2794017;-56
2022/06/17 03:59:27;;;;;;;;;10.67;10.33;;;;;16.44;100.00;99733.19;6283302;20;3518051;-59
2022/06/17 04:02:06;;;;;;;;;11.67;11.67;;;;;16.43;100.00;99746.88;6311494;20;3513823;-56
2022/06/17 04:04:43;;;;;;;;;17.33;16.00;;;;;16.39;100.00;99743.56;6306262;20;2823261;-56
2022/06/17 04:07:13;;;;;;;;;14.50;13.00;;;;;16.56;100.00;99752.97;6317643;20;2806603;-57
2022/06/17 04:09:46;;;;;;;;;11.00;10.67;;;;;16.57;100.00;99743.84;6285821;20;2794129;-59
2022/06/17 04:12:24;;;;;;;;;10.00;10.00;;;;;16.56;100.00;99742.13;6298615;20;3499262;-57
2022/06/17 04:15:31;;;;;;;;;11.50;9.50;;;;;16.75;99.11;99751.41;6313619;20;2781520;-58
2022/06/17 04:18:02;;;;;;;;;11.40;10.40;;;;;17.09;98.11;99750.22;6309205;20;2787770;-54
2022/06/17 04:20:48;;;;;;;;;6.50;6.50;;;;;17.24;97.19;99753.41;6286575;20;2737773;-55
2022/06/17 04:23:31;;;;;;;;;7.00;7.00;;;;;17.32;96.17;99753.63;6286895;20;2735667;-58
2022/06/17 04:26:37;;;;;;;;;8.80;7.00;;;;;17.41;96.69;99751.94;6308997;20;2746084;-58
2022/06/17 04:29:20;;;;;;;;;7.00;5.50;;;;;17.41;94.92;99746.50;6318283;20;2737811;-58
2022/06/17 04:32:06;;;;;;;;;6.00;5.20;;;;;17.68;93.92;99747.72;6322365;20;2479911;-59
2022/06/17 04:34:34;;;;;;;;;5.00;5.00;;;;;17.67;93.24;99748.75;6316883;20;2752443;-59
2022/06/17 04:37:09;;;;;;;;;5.00;5.00;;;;;17.56;93.03;99749.69;6287432;20;2742957;-56
2022/06/17 04:39:55;;;;;;;;;5.00;5.00;;;;;17.91;92.39;99743.81;6287823;20;2747152;-62
2022/06/17 04:42:41;;;;;;;;;4.50;4.50;;;;;17.91;91.96;99743.81;6288027;20;2735662;-58
2022/06/17 04:45:27;;;;;;;;;8.00;5.00;;;;;18.24;91.41;99744.41;6282902;20;2737890;-54
2022/06/17 04:47:57;;;;;;;;;7.50;5.00;;;;;18.33;90.34;99745.44;6288600;20;2744015;-59
2022/06/17 04:50:27;;;;;;;;;4.50;4.50;;;;;18.67;90.90;99742.25;6285202;20;2746111;-58
2022/06/17 04:52:55;;;;;;;;;4.00;4.00;;;;;19.03;87.74;99752.38;6283223;20;2730517;-58
2022/06/17 04:55:38;;;;;;;;;4.00;4.00;;;;;20.52;79.90;99761.38;6288360;20;2749399;-59
2022/06/17 04:58:07;;;;;;;;;5.00;4.50;;;;;19.11;86.96;99758.97;6286169;20;2743038;-56
2022/06/17 05:00:35;;;;;;;;;5.00;5.00;;;;;18.97;87.99;99755.72;6285926;20;2741004;-58
2022/06/17 05:03:05;;;;;;;;;4.40;4.00;;;;;19.12;90.04;99757.97;6309778;20;2738158;-58
2022/06/17 05:05:40;;;;;;;;;5.60;5.00;;;;;19.27;89.09;99775.53;6342351;20;2738801;-59
2022/06/17 05:08:28;;;;;;;;;5.00;5.00;;;;;19.27;89.15;99783.69;6317700;20;2741937;-57
2022/06/17 05:11:19;;;;;;;;;4.50;4.50;;;;;19.73;88.24;99780.13;6282015;20;2749492;-60
2022/06/17 05:14:18;;;;;;;;;4.00;4.00;;;;;20.26;85.51;99800.31;6281068;20;2737798;-59
2022/06/17 05:16:46;;;;;;;;;4.00;4.00;;;;;20.06;83.97;99788.66;6284782;20;2754539;-59
2022/06/17 05:19:16;;;;;;;;;4.80;4.80;;;;;20.53;83.89;99791.22;6336432;20;2748256;-59
2022/06/17 05:21:44;;;;;;;;;4.00;3.00;;;;;20.56;82.40;99790.97;6315754;20;2743015;-60
2022/06/17 05:24:13;;;;;;;;;6.00;4.67;;;;;20.80;81.22;99787.59;6312525;20;2748261;-60
2022/06/17 05:26:42;;;;;;;;;2.00;2.00;;;;;20.71;81.44;99793.97;6314761;20;2756633;-60
2022/06/17 05:29:10;;;;;;;;;5.00;4.00;;;;;20.59;82.49;99797.97;6316197;20;2748308;-61
2022/06/17 05:31:42;;;;;;;;;6.00;6.00;;;;;20.52;80.73;99792.22;6363066;20;1792899;-61
2022/06/17 05:34:10;;;;;;;;;6.33;5.33;;;;;20.76;80.14;99796.25;6316172;20;2743373;-60
2022/06/17 05:36:40;;;;;;;;;4.20;4.20;;;;;20.73;79.64;99791.94;6342125;20;2751357;-60
2022/06/17 05:39:09;;;;;;;;;4.00;4.00;;;;;20.80;79.18;99803.97;6337638;20;2741024;-61
2022/06/17 05:41:38;;;;;;;;;5.00;4.00;;;;;20.70;79.29;99805.06;6283953;20;2751423;-61
2022/06/17 05:44:08;;;;;;;;;6.40;5.00;;;;;20.91;78.61;99815.66;6340400;20;2745041;-61
2022/06/17 05:46:37;;;;;;;;;4.40;4.40;;;;;21.39;76.87;99808.84;6339237;20;2737756;-61
2022/06/17 05:49:07;;;;;;;;;6.20;5.00;;;;;21.70;77.03;99812.78;6340402;20;2738782;-61
2022/06/17 05:51:36;;;;;;;;;4.80;4.80;;;;;21.84;76.46;99818.66;6339076;20;2742993;-61
2022/06/17 05:54:05;;;;;;;;;4.33;4.33;;;;;21.91;75.72;99826.03;6282652;20;2752496;-60
2022/06/17 05:56:34;;;;;;;;;5.20;5.20;;;;;21.87;75.34;99830.13;6337017;20;2745066;-59
2022/06/17 05:59:04;;;;;;;;;4.00;4.00;;;;;21.88;73.81;99825.50;6339981;20;2756728;-62
2022/06/17 06:01:33;;;;;;;;;5.40;5.00;;;;;21.89;73.99;99829.97;6306864;20;2748191;-60
2022/06/17 06:04:04;;;;;;;;;5.00;5.00;;;;;22.27;73.14;99835.94;6340907;20;2748330;-60
2022/06/17 06:06:33;;;;;;;;;5.00;5.00;;;;;21.94;73.96;99840.41;6305543;20;2745208;-60
2022/06/17 06:09:02;;;;;;;;;3.33;3.33;;;;;22.05;72.63;99837.38;6317058;20;2741912;-60
2022/06/17 06:11:31;;;;;;;;;5.00;5.00;;;;;22.16;71.49;99837.06;6314581;20;2742060;-60
2022/06/17 06:14:01;;;;;;;;;5.40;4.40;;;;;22.36;71.66;99837.69;6334696;20;2748154;-59
2022/06/17 06:16:31;;;;;;;;;4.00;3.80;;;;;22.63;71.42;99842.03;6339086;20;2750308;-60
2022/06/17 06:18:59;;;;;;;;;5.67;4.33;;;;;22.24;71.91;99844.47;6283628;20;2748166;-59
2022/06/17 06:21:29;;;;;;;;;4.60;4.60;;;;;22.37;72.43;99846.75;6336622;20;2743024;-59
2022/06/17 06:23:58;;;;;;;;;3.00;3.00;;;;;22.35;70.11;99847.78;6305596;20;2737746;-60
2022/06/17 06:26:27;;;;;;;;;3.00;3.00;;;;;22.81;69.64;99854.72;6314677;20;2748214;-60
2022/06/17 06:28:57;;;;;;;;;3.40;3.40;;;;;22.83;69.27;99864.47;6338628;20;2744011;-60
2022/06/17 06:31:34;;;;;;;;;4.00;4.00;;;;;22.17;70.63;99863.41;6281119;20;2750326;-59
2022/06/17 06:34:05;;;;;;;;;5.60;5.60;;;;;22.62;71.17;99862.22;6336350;20;2746211;-60
2022/06/17 06:36:37;;;;;;;;;6.00;4.80;;;;;23.21;69.07;99868.44;6304632;20;2750291;-60
2022/06/17 06:39:07;;;;;;;;;3.60;3.60;;;;;22.79;70.18;99868.56;6306816;20;2750256;-60
2022/06/17 06:41:35;;;;;;;;;7.00;5.00;;;;;22.40;71.80;99868.28;6285175;20;2747183;-60
2022/06/17 06:44:05;;;;;;;;;6.20;4.80;;;;;22.58;69.03;99872.63;6336889;20;2747281;-59
2022/06/17 06:46:36;;;;;;;;;6.00;6.00;;;;;22.62;69.31;99873.16;6306515;20;2743004;-60
2022/06/17 06:49:05;;;;;;;;;5.20;5.20;;;;;22.87;69.36;99876.78;6339376;20;2748204;-60
2022/06/17 06:51:35;;;;;;;;;5.00;5.00;;;;;22.95;68.77;99879.53;6338415;20;2736756;-64
2022/06/17 06:54:03;;;;;;;;;3.67;3.67;;;;;22.75;69.79;99872.69;6314430;20;2756526;-65
2022/06/17 06:56:33;;;;;;;;;3.80;3.80;;;;;22.48;69.44;99871.06;6335438;20;2745203;-66
2022/06/17 06:59:02;;;;;;;;;4.00;2.33;;;;;23.63;67.24;99883.81;6282564;20;2735698;-67
2022/06/17 07:01:33;;;;;;;;;7.67;5.33;;;;;24.05;65.64;99876.38;6315374;20;2729456;-61
2022/06/17 07:04:04;;;;;;;;;6.00;6.00;;;;;23.76;65.95;99872.34;6337769;20;2732655;-63
2022/06/17 07:06:36;;;;;;;;;6.00;4.67;;;;;24.14;65.97;99879.94;6313195;20;2748211;-62
2022/06/17 07:09:05;;;;;;;;;5.40;4.60;;;;;24.32;64.93;99884.13;6337683;20;2745067;-62
2022/06/17 07:11:35;;;;;;;;;4.60;4.60;;;;;23.66;64.74;99877.97;6306763;20;2747172;-63
2022/06/17 07:14:04;;;;;;;;;6.00;5.00;;;;;23.84;64.96;99880.53;6307518;20;2750275;-63
2022/06/17 07:16:34;;;;;;;;;4.80;4.00;;;;;24.35;63.91;99876.59;6309945;20;2750248;-62
2022/06/17 07:19:07;;;;;;;;;3.60;3.60;;;;;24.30;64.63;99880.75;6307457;20;2738779;-59
2022/06/17 07:21:37;;;;;;;;;5.20;4.60;;;;;24.08;63.62;99887.00;6305506;20;2745083;-62
2022/06/17 07:24:08;;;;;;;;;3.00;3.00;;;;;24.55;62.65;99883.38;6305401;20;2744087;-62
2022/06/17 07:26:38;;;;;;;;;3.40;3.00;;;;;25.05;59.91;99887.50;6313676;20;2738832;-60
2022/06/17 07:29:08;;;;;;;;;7.20;5.40;;;;;25.34;55.56;99889.53;6344961;20;2737986;-59
2022/06/17 07:31:38;;;;;;;;;5.00;5.00;;;;;25.23;56.99;99902.88;6342663;20;2747226;-60
2022/06/17 07:34:07;;;;;;;;;3.00;3.00;;;;;25.31;56.12;99900.06;6309958;20;2745037;-60
2022/06/17 07:42:13;;;;;;;;;4.20;3.00;;;;;25.23;53.76;99902.88;6315050;20;2744022;-62
2022/06/17 07:44:42;;;;;;;;;5.00;5.00;;;;;25.28;56.09;99898.53;6321834;20;2738875;-62
2022/06/17 07:47:22;;;;;;;;;3.00;3.00;;;;;25.51;54.63;99912.22;6343707;20;2751332;-62
2022/06/17 07:49:51;;;;;;;;;5.00;5.00;;;;;25.54;55.62;99906.38;6312047;20;2746083;-62
2022/06/17 07:52:21;;;;;;;;;5.00;5.00;;;;;25.60;55.34;99915.78;6314319;20;2748167;-62
2022/06/17 07:54:51;;;;;;;;;5.20;4.20;;;;;25.39;55.47;99909.09;6314923;20;2755484;-59
2022/06/17 07:57:20;;;;;;;;;4.00;4.00;;;;;25.87;53.31;99919.84;6312991;20;2745072;-59
2022/06/17 07:59:50;;;;;;;;;4.20;4.20;;;;;26.08;54.05;99912.75;6314264;20;2742971;-59
2022/06/17 08:02:19;;;;;;;;;4.40;4.40;;;;;26.24;51.32;99918.03;6312290;20;2742985;-59
2022/06/17 08:04:49;;;;;;;;;4.00;3.00;;;;;26.27;51.88;99917.66;6310807;20;2742960;-60
2022/06/17 08:07:18;;;;;;;;;5.00;3.20;;;;;26.45;51.69;99920.88;6313866;20;2748196;-62
2022/06/17 08:09:48;;;;;;;;;4.00;4.00;;;;;26.16;51.49;99920.91;6313634;20;2737821;-62
2022/06/17 08:12:17;;;;;;;;;3.80;3.80;;;;;26.58;50.43;99920.22;6345015;20;2748169;-62
2022/06/17 08:14:54;;;;;;;;;4.00;4.00;;;;;27.08;50.79;99920.38;6334146;20;1790909;-62
2022/06/17 08:17:24;;;;;;;;;4.00;4.00;;;;;26.95;49.40;99920.22;6345911;20;2750291;-59
2022/06/17 08:19:56;;;;;;;;;5.00;5.00;;;;;27.05;48.66;99920.75;6312956;20;2749297;-60
2022/06/17 08:22:25;;;;;;;;;4.00;4.00;;;;;26.81;47.21;99927.50;6314466;20;2752387;-60
2022/06/17 08:24:56;;;;;;;;;8.75;5.00;;;;;27.45;50.66;99926.69;6321385;20;2737873;-60
2022/06/17 08:27:25;;;;;;;;;3.75;3.75;;;;;27.79;48.21;99928.69;6313488;20;2627439;-60
2022/06/17 08:29:57;;;;;;;;;3.17;3.17;;;;;27.99;47.70;99923.34;6364519;20;1789349;-60
2022/06/17 08:35:35;;;;;;;;;3.60;3.00;;;;;28.50;44.68;99928.53;6316231;20;2737751;-60
2022/06/17 08:38:23;;;;;;;;;3.00;3.00;;;;;28.00;44.48;99925.03;6342078;20;2725351;-60
2022/06/17 08:40:54;;;;;;;;;5.00;3.67;;;;;27.39;44.64;99933.88;6318655;20;2739832;-58
2022/06/17 08:44:58;;;;;;;;;4.20;4.00;;;;;27.49;44.84;99928.00;6342164;20;2748957;-57
2022/06/17 08:48:09;;;;;;;;;5.40;3.60;;;;;27.66;44.12;99934.94;6308894;20;2756502;-60
2022/06/17 08:50:56;;;;;;;;;3.80;3.80;;;;;26.91;43.67;99931.66;6304414;20;2743987;-59
2022/06/17 08:54:12;;;;;;;;;5.00;5.00;;;;;27.76;41.33;99940.97;6310247;20;2748226;-57
2022/06/17 08:57:29;;;;;;;;;3.00;3.00;;;;;28.40;43.58;99931.66;6305073;20;2729444;-57
2022/06/17 09:00:52;;;;;;;;;4.60;4.60;;;;;28.50;43.04;99942.34;6344636;20;2748166;-57
2022/06/17 09:04:01;;;;;;;;;3.00;3.00;;;;;28.32;43.50;99948.38;6310279;20;2742958;-58
2022/06/17 09:07:09;;;;;;;;;4.20;4.20;;;;;28.71;43.38;99954.38;6311717;20;2756537;-58
2022/06/17 09:10:08;;;;;;;;;5.20;4.40;;;;;28.56;42.91;99948.97;6315835;20;2743013;-57
2022/06/17 09:13:08;;;;;;;;;4.00;4.00;;;;;28.66;43.06;99952.22;6313588;20;2750304;-58
2022/06/17 09:15:58;;;;;;;;;4.00;4.00;;;;;28.75;42.80;99955.63;6310481;20;2743009;-58
2022/06/17 09:18:46;;;;;;;;;4.20;4.20;;;;;28.75;43.23;99947.34;6308702;20;2737776;-58
2022/06/17 09:21:34;;;;;;;;;4.00;4.00;;;;;29.20;42.54;99950.50;6309014;20;2748214;-58
2022/06/17 09:24:10;;;;;;;;;3.80;3.00;;;;;28.66;40.46;99953.06;6311300;20;2744037;-58
2022/06/17 09:27:04;;;;;;;;;4.33;4.33;;;;;28.85;41.64;99956.09;6285251;20;2731734;-57
2022/06/17 09:30:03;;;;;;;;;5.00;5.00;;;;;28.75;40.57;99948.19;6316400;20;2738846;-57
2022/06/17 09:33:12;;;;;;;;;8.00;5.00;;;;;28.49;41.09;99948.06;6315525;20;2758673;-57
2022/06/17 09:36:18;;;;;;;;;5.00;5.00;;;;;29.13;41.48;99953.25;6319865;20;2745038;-57
2022/06/17 09:38:57;;;;;;;;;5.00;5.00;;;;;28.77;39.46;99956.28;6319644;20;2738907;-58
2022/06/17 09:42:10;;;;;;;;;5.00;5.00;;;;;29.65;40.13;99956.31;6315138;20;2741942;-58
2022/06/17 09:45:00;;;;;;;;;4.67;4.67;;;;;29.70;39.81;99951.00;6314037;20;2737791;-58
2022/06/17 09:47:55;;;;;;;;;5.20;5.20;;;;;29.67;39.51;99951.44;6339644;20;2733692;-59
2022/06/17 09:50:42;;;;;;;;;6.33;5.00;;;;;29.19;39.93;99951.56;6285585;20;2728453;-58
2022/06/17 09:53:25;;;;;;;;;5.67;4.33;;;;;29.27;41.16;99954.13;6318067;20;2748254;-58
2022/06/17 09:56:17;;;;;;;;;5.00;5.00;;;;;28.31;40.16;99954.13;6319147;20;2738796;-58
2022/06/17 09:59:17;;;;;;;;;5.00;5.00;;;;;27.61;42.34;99945.72;6339938;20;2739898;-58
2022/06/17 10:01:47;;;;;;;;;5.60;5.60;;;;;29.04;39.30;99952.59;6308705;20;2744010;-58
2022/06/17 10:04:17;;;;;;;;;4.40;4.40;;;;;29.15;40.17;99951.13;6310190;20;2742996;-58
2022/06/17 10:07:22;;;;;;;;;6.67;5.33;;;;;29.16;39.74;99961.13;6287788;20;2734797;-58
2022/06/17 10:10:21;;;;;;;;;5.33;4.67;;;;;28.94;41.08;99954.88;6319973;20;2746642;-58
2022/06/17 10:13:24;;;;;;;;;7.00;5.33;;;;;28.57;41.13;99951.53;6319978;20;2743003;-58
2022/06/17 10:20:41;;;;;;;;;3.00;3.00;;;;;27.32;41.91;99961.34;6303695;20;2740925;-59
2022/06/17 10:24:03;;;;;;;;;6.00;6.00;;;;;27.70;40.12;99958.34;6287433;20;2737787;-53
2022/06/17 10:27:19;;;;;;;;;7.20;5.40;;;;;28.34;41.71;99959.25;6338008;20;2744119;-56
2022/06/17 10:30:17;;;;;;;;;6.00;6.00;;;;;28.38;39.46;99960.53;6285165;20;2733023;-57
2022/06/17 10:32:50;;;;;;;;;6.00;6.00;;;;;28.94;38.86;99965.94;6322439;20;2622134;-55
2022/06/17 10:35:36;;;;;;;;;7.00;5.00;;;;;28.87;36.43;99965.06;6316021;20;2748182;-48
2022/06/17 10:38:31;;;;;;;;;7.00;7.00;;;;;28.54;37.81;99965.78;6316719;20;2738411;-57
2022/06/17 10:41:01;;;;;;;;;5.67;5.67;;;;;29.81;34.40;99960.59;6315765;20;2735654;-58
2022/06/17 10:43:47;;;;;;;;;9.00;7.67;;;;;29.09;35.22;99954.72;6316086;20;2746072;-57
2022/06/17 10:46:28;;;;;;;;;7.00;7.00;;;;;29.24;33.58;99962.84;6313787;20;2746191;-57
2022/06/17 10:49:07;;;;;;;;;6.33;6.33;;;;;28.53;35.38;99964.03;6314693;20;2742099;-59
2022/06/17 10:51:37;;;;;;;;;8.67;8.67;;;;;28.11;36.12;99962.28;6314397;20;2745063;-59
2022/06/17 10:54:34;;;;;;;;;7.33;7.33;;;;;28.53;34.62;99960.44;6308377;20;2754426;-58
2022/06/17 10:57:32;;;;;;;;;5.00;5.00;;;;;28.02;34.55;99956.06;6334782;20;2735829;-57
2022/06/17 11:00:32;;;;;;;;;7.00;6.67;;;;;28.34;33.86;99954.56;6320481;20;2746120;-58
2022/06/17 11:03:41;;;;;;;;;7.00;7.00;;;;;28.28;33.37;99955.38;6323149;20;2744113;-58
2022/06/17 11:06:09;;;;;;;;;7.33;7.33;;;;;29.16;34.17;99952.84;6317258;20;2752351;-58
2022/06/17 11:08:59;;;;;;;;;9.33;8.00;;;;;29.70;33.94;99959.31;6318060;20;2753422;-59
2022/06/17 11:14:45;;;;;;;;;6.33;6.33;;;;;28.65;34.50;99945.84;6320647;20;2738914;-57
2022/06/17 11:17:39;;;;;;;;;6.67;6.00;;;;;27.95;34.06;99947.72;6321708;20;2741975;-59
2022/06/17 11:20:29;;;;;;;;;8.00;8.00;;;;;27.26;38.48;99945.63;6319516;20;2756520;-58
2022/06/17 11:23:43;;;;;;;;;7.67;7.33;;;;;27.39;40.47;99944.06;6321344;20;2752386;-56
2022/06/17 11:26:24;;;;;;;;;8.60;6.60;;;;;27.39;41.21;99944.91;6342131;20;2739840;-56
2022/06/17 11:29:03;;;;;;;;;8.33;8.33;;;;;27.97;40.87;99947.53;6319499;20;2750339;-57
2022/06/17 11:31:40;;;;;;;;;9.33;8.00;;;;;27.88;39.82;99944.06;6315915;20;2762873;-58
2022/06/17 11:34:20;;;;;;;;;7.00;7.00;;;;;28.31;37.14;99937.56;6322038;20;2742018;-56
2022/06/17 11:37:18;;;;;;;;;9.00;9.00;;;;;28.06;37.41;99943.56;6315908;20;2756568;-57
2022/06/17 11:39:47;;;;;;;;;10.33;9.00;;;;;28.16;39.57;99924.72;6315611;20;3476291;-57
2022/06/17 11:42:24;;;;;;;;;8.00;8.00;;;;;27.68;39.38;99930.09;6318083;20;2754536;-58
2022/06/17 11:45:02;;;;;;;;;8.00;8.00;;;;;27.24;38.76;99933.06;6324167;20;2741157;-58
2022/06/17 11:47:35;;;;;;;;;8.00;8.00;;;;;27.55;39.90;99938.25;6326237;20;2748275;-58
2022/06/17 11:50:23;;;;;;;;;8.33;8.33;;;;;27.26;40.36;99929.06;6326868;20;2754453;-59
2022/06/17 11:53:03;;;;;;;;;9.00;9.00;;;;;27.85;39.61;99930.66;6322935;20;2756493;-58
2022/06/17 11:55:46;;;;;;;;;12.00;10.67;;;;;27.94;39.08;99931.38;6316947;20;3512798;-58
2022/06/17 11:58:34;;;;;;;;;10.67;10.00;;;;;27.65;37.68;99930.50;6316811;20;2789835;-58
2022/06/17 12:01:15;;;;;;;;;10.33;9.00;;;;;28.08;35.60;99933.16;6314645;20;3487715;-58
2022/06/17 12:03:46;;;;;;;;;12.00;9.00;;;;;28.47;35.09;99941.94;6320018;20;2773380;-54
2022/06/17 12:06:30;;;;;;;;;8.67;8.00;;;;;27.94;34.81;99936.91;6319856;20;2739823;-57
2022/06/17 12:09:17;;;;;;;;;8.00;8.00;;;;;27.95;34.37;99944.13;6320938;20;2454411;-59
2022/06/17 12:12:06;;;;;;;;;9.00;9.00;;;;;28.20;35.52;99947.25;6316993;20;2750344;-57
2022/06/17 12:15:12;;;;;;;;;8.33;8.33;;;;;28.22;35.50;99945.13;6320166;20;2741973;-58
2022/06/17 12:17:42;;;;;;;;;9.00;9.00;;;;;28.05;37.22;99939.09;6313778;20;3478355;-59
2022/06/17 12:20:52;;;;;;;;;12.00;10.33;;;;;26.65;38.13;99947.88;6315774;20;3510788;-58
2022/06/17 12:23:52;;;;;;;;;7.33;7.00;;;;;25.66;41.22;99958.19;6319282;20;2737823;-59
2022/06/17 12:26:33;;;;;;;;;5.00;4.40;;;;;25.06;41.58;99957.06;6340095;20;2748204;-58